< < Back
Terminal Aerodrome Forecast


Current Version              Previous Versions:   1  2  3  4  5  6  7  8  9  

Terminal Aerodrome Forecast

721
FTUS42 KCAE 302320
TAFCAE
TAF
KCAE 302320Z 3100/3124 VRB03KT P6SM SCT250
     FM311300 05006KT P6SM SCT035=

Latest METAR

368
SAUS80 KWBC 310600 CCA
MTRCAE
METAR KCAE 310556Z 00000KT 10SM SCT150 23/21 A3001 RMK AO2 SLP160
T02330206 10300 20233 53001


USA.gov is the U.S. government's official web portal to all federal, state and local government web resources and services.